sensor_id;sensor_type;location;lat;lon;timestamp;pressure;altitude;pressure_sealevel;temperature;humidity
76994;BME280;66749;47.406;18.822;2023-12-22T00:00:00;98160.38;;;6.17;96.04
76994;BME280;66749;47.406;18.822;2023-12-22T00:00:32;98167.44;;;6.15;95.46
76994;BME280;66749;47.406;18.822;2023-12-22T00:01:04;98169.78;;;6.18;95.47
76994;BME280;66749;47.406;18.822;2023-12-22T00:01:36;98189.34;;;6.22;95.14
76994;BME280;66749;47.406;18.822;2023-12-22T00:02:07;98187.47;;;6.24;94.86
76994;BME280;66749;47.406;18.822;2023-12-22T00:02:39;98194.41;;;6.23;95.73
76994;BME280;66749;47.406;18.822;2023-12-22T00:03:11;98192.63;;;6.24;96.50
76994;BME280;66749;47.406;18.822;2023-12-22T00:03:43;98195.13;;;6.25;96.01
76994;BME280;66749;47.406;18.822;2023-12-22T00:04:17;98189.72;;;6.28;95.56
76994;BME280;66749;47.406;18.822;2023-12-22T00:04:49;98196.66;;;6.28;96.05
76994;BME280;66749;47.406;18.822;2023-12-22T00:05:21;98192.06;;;6.31;96.23
76994;BME280;66749;47.406;18.822;2023-12-22T00:05:53;98190.56;;;6.29;96.64
76994;BME280;66749;47.406;18.822;2023-12-22T00:06:25;98183.00;;;6.26;97.06
76994;BME280;66749;47.406;18.822;2023-12-22T00:06:56;98176.66;;;6.30;96.78
76994;BME280;66749;47.406;18.822;2023-12-22T00:07:28;98162.44;;;6.35;97.04
76994;BME280;66749;47.406;18.822;2023-12-22T00:08:00;98163.59;;;6.31;96.66
76994;BME280;66749;47.406;18.822;2023-12-22T00:08:32;98166.06;;;6.33;96.70
76994;BME280;66749;47.406;18.822;2023-12-22T00:09:04;98176.19;;;6.36;96.50
76994;BME280;66749;47.406;18.822;2023-12-22T00:09:36;98166.88;;;6.33;97.08
76994;BME280;66749;47.406;18.822;2023-12-22T00:10:08;98168.19;;;6.28;97.56
76994;BME280;66749;47.406;18.822;2023-12-22T00:10:41;98178.41;;;6.29;97.45
76994;BME280;66749;47.406;18.822;2023-12-22T00:11:13;98180.19;;;6.29;97.42
76994;BME280;66749;47.406;18.822;2023-12-22T00:11:44;98177.72;;;6.27;97.42
76994;BME280;66749;47.406;18.822;2023-12-22T00:12:16;98192.19;;;6.30;97.44
76994;BME280;66749;47.406;18.822;2023-12-22T00:12:48;98186.91;;;6.31;98.09
76994;BME280;66749;47.406;18.822;2023-12-22T00:13:20;98183.34;;;6.32;97.73
76994;BME280;66749;47.406;18.822;2023-12-22T00:13:52;98186.19;;;6.29;97.82
76994;BME280;66749;47.406;18.822;2023-12-22T00:14:24;98182.78;;;6.29;97.39
76994;BME280;66749;47.406;18.822;2023-12-22T00:14:55;98180.91;;;6.31;97.60
76994;BME280;66749;47.406;18.822;2023-12-22T00:15:27;98180.66;;;6.34;97.89
76994;BME280;66749;47.406;18.822;2023-12-22T00:16:00;98183.16;;;6.35;97.71
76994;BME280;66749;47.406;18.822;2023-12-22T00:16:31;98182.31;;;6.35;97.71
76994;BME280;66749;47.406;18.822;2023-12-22T00:17:03;98186.78;;;6.33;97.87
76994;BME280;66749;47.406;18.822;2023-12-22T00:17:35;98193.03;;;6.30;97.81
76994;BME280;66749;47.406;18.822;2023-12-22T00:18:07;98191.25;;;6.31;97.87
76994;BME280;66749;47.406;18.822;2023-12-22T00:18:39;98195.50;;;6.32;97.86
76994;BME280;66749;47.406;18.822;2023-12-22T00:19:14;98201.84;;;6.28;97.83
76994;BME280;66749;47.406;18.822;2023-12-22T00:19:46;98195.72;;;6.29;98.11
76994;BME280;66749;47.406;18.822;2023-12-22T00:20:18;98199.72;;;6.33;98.19
76994;BME280;66749;47.406;18.822;2023-12-22T00:20:50;98201.38;;;6.34;98.08
76994;BME280;66749;47.406;18.822;2023-12-22T00:21:22;98192.19;;;6.30;97.57
76994;BME280;66749;47.406;18.822;2023-12-22T00:21:54;98200.66;;;6.32;97.79
76994;BME280;66749;47.406;18.822;2023-12-22T00:22:26;98209.16;;;6.34;97.70
76994;BME280;66749;47.406;18.822;2023-12-22T00:22:58;98202.09;;;6.36;97.61
76994;BME280;66749;47.406;18.822;2023-12-22T00:23:29;98206.47;;;6.35;98.02
76994;BME280;66749;47.406;18.822;2023-12-22T00:24:01;98209.88;;;6.36;97.71
76994;BME280;66749;47.406;18.822;2023-12-22T00:24:33;98205.66;;;6.35;97.45
76994;BME280;66749;47.406;18.822;2023-12-22T00:25:05;98210.81;;;6.35;98.21
76994;BME280;66749;47.406;18.822;2023-12-22T00:25:39;98214.00;;;6.38;97.89
76994;BME280;66749;47.406;18.822;2023-12-22T00:26:11;98219.28;;;6.37;98.60
76994;BME280;66749;47.406;18.822;2023-12-22T00:26:43;98215.75;;;6.38;98.23
76994;BME280;66749;47.406;18.822;2023-12-22T00:27:15;98222.81;;;6.36;98.92
76994;BME280;66749;47.406;18.822;2023-12-22T00:27:46;98216.00;;;6.35;98.34
76994;BME280;66749;47.406;18.822;2023-12-22T00:28:19;98221.06;;;6.36;97.99
76994;BME280;66749;47.406;18.822;2023-12-22T00:28:50;98220.13;;;6.37;98.04
76994;BME280;66749;47.406;18.822;2023-12-22T00:29:22;98225.88;;;6.41;98.01
76994;BME280;66749;47.406;18.822;2023-12-22T00:29:54;98232.50;;;6.45;98.06
76994;BME280;66749;47.406;18.822;2023-12-22T00:30:26;98229.22;;;6.43;98.33
76994;BME280;66749;47.406;18.822;2023-12-22T00:30:58;98228.16;;;6.46;98.42
76994;BME280;66749;47.406;18.822;2023-12-22T00:31:30;98247.22;;;6.45;99.06
76994;BME280;66749;47.406;18.822;2023-12-22T00:32:02;98235.31;;;6.42;98.94
76994;BME280;66749;47.406;18.822;2023-12-22T00:32:34;98235.09;;;6.45;98.50
76994;BME280;66749;47.406;18.822;2023-12-22T00:33:06;98233.44;;;6.44;99.04
76994;BME280;66749;47.406;18.822;2023-12-22T00:33:38;98239.34;;;6.46;98.90
76994;BME280;66749;47.406;18.822;2023-12-22T00:34:10;98242.88;;;6.45;98.83
76994;BME280;66749;47.406;18.822;2023-12-22T00:34:44;98236.03;;;6.44;98.81
76994;BME280;66749;47.406;18.822;2023-12-22T00:35:17;98239.34;;;6.46;98.16
76994;BME280;66749;47.406;18.822;2023-12-22T00:35:48;98241.69;;;6.49;98.03
76994;BME280;66749;47.406;18.822;2023-12-22T00:36:20;98235.69;;;6.49;98.23
76994;BME280;66749;47.406;18.822;2023-12-22T00:36:55;98236.50;;;6.49;98.53
76994;BME280;66749;47.406;18.822;2023-12-22T00:37:27;98243.44;;;6.49;98.43
76994;BME280;66749;47.406;18.822;2023-12-22T00:37:59;98244.28;;;6.49;98.34
76994;BME280;66749;47.406;18.822;2023-12-22T00:38:31;98244.50;;;6.46;98.22
76994;BME280;66749;47.406;18.822;2023-12-22T00:39:03;98252.88;;;6.50;98.55
76994;BME280;66749;47.406;18.822;2023-12-22T00:39:35;98238.88;;;6.52;98.73
76994;BME280;66749;47.406;18.822;2023-12-22T00:40:08;98237.13;;;6.53;98.59
76994;BME280;66749;47.406;18.822;2023-12-22T00:40:40;98234.41;;;6.54;98.58
76994;BME280;66749;47.406;18.822;2023-12-22T00:41:12;98238.75;;;6.54;98.83
76994;BME280;66749;47.406;18.822;2023-12-22T00:41:44;98224.38;;;6.50;98.93
76994;BME280;66749;47.406;18.822;2023-12-22T00:42:16;98223.47;;;6.51;98.89
76994;BME280;66749;47.406;18.822;2023-12-22T00:42:48;98226.13;;;6.49;99.26
76994;BME280;66749;47.406;18.822;2023-12-22T00:43:20;98231.94;;;6.53;98.73
76994;BME280;66749;47.406;18.822;2023-12-22T00:43:52;98228.72;;;6.49;99.11
76994;BME280;66749;47.406;18.822;2023-12-22T00:44:24;98224.50;;;6.48;99.29
76994;BME280;66749;47.406;18.822;2023-12-22T00:44:59;98233.91;;;6.49;99.44
76994;BME280;66749;47.406;18.822;2023-12-22T00:45:30;98223.56;;;6.49;99.26
76994;BME280;66749;47.406;18.822;2023-12-22T00:46:02;98229.91;;;6.45;99.52
76994;BME280;66749;47.406;18.822;2023-12-22T00:46:34;98230.63;;;6.47;99.22
76994;BME280;66749;47.406;18.822;2023-12-22T00:47:06;98241.59;;;6.51;99.08
76994;BME280;66749;47.406;18.822;2023-12-22T00:47:38;98245.09;;;6.50;98.91
76994;BME280;66749;47.406;18.822;2023-12-22T00:48:10;98245.97;;;6.50;99.26
76994;BME280;66749;47.406;18.822;2023-12-22T00:48:42;98245.97;;;6.50;99.22
76994;BME280;66749;47.406;18.822;2023-12-22T00:49:14;98245.47;;;6.45;99.51
76994;BME280;66749;47.406;18.822;2023-12-22T00:49:46;98238.19;;;6.50;99.73
76994;BME280;66749;47.406;18.822;2023-12-22T00:50:18;98239.34;;;6.46;99.22
76994;BME280;66749;47.406;18.822;2023-12-22T00:50:49;98247.00;;;6.48;99.59
76994;BME280;66749;47.406;18.822;2023-12-22T00:51:21;98244.63;;;6.45;99.24
76994;BME280;66749;47.406;18.822;2023-12-22T00:51:53;98254.75;;;6.48;99.27
76994;BME280;66749;47.406;18.822;2023-12-22T00:52:25;98252.06;;;6.49;99.17
76994;BME280;66749;47.406;18.822;2023-12-22T00:52:58;98255.59;;;6.48;99.42
76994;BME280;66749;47.406;18.822;2023-12-22T00:53:29;98257.59;;;6.45;99.19
76994;BME280;66749;47.406;18.822;2023-12-22T00:54:01;98258.41;;;6.45;99.71
76994;BME280;66749;47.406;18.822;2023-12-22T00:54:33;98253.22;;;6.45;99.71
76994;BME280;66749;47.406;18.822;2023-12-22T00:55:05;98263.59;;;6.45;99.31
76994;BME280;66749;47.406;18.822;2023-12-22T00:55:37;98273.25;;;6.43;99.46
76994;BME280;66749;47.406;18.822;2023-12-22T00:56:09;98279.34;;;6.42;99.97
76994;BME280;66749;47.406;18.822;2023-12-22T00:56:40;98281.03;;;6.43;99.84
76994;BME280;66749;47.406;18.822;2023-12-22T00:57:15;98293.63;;;6.48;99.41
76994;BME280;66749;47.406;18.822;2023-12-22T00:57:47;98287.22;;;6.40;99.90
76994;BME280;66749;47.406;18.822;2023-12-22T00:58:19;98295.34;;;6.36;100.00
76994;BME280;66749;47.406;18.822;2023-12-22T00:58:51;98298.66;;;6.38;100.00
76994;BME280;66749;47.406;18.822;2023-12-22T00:59:35;98296.31;;;6.35;100.00
76994;BME280;66749;47.406;18.822;2023-12-22T01:00:07;98293.47;;;6.38;99.74
76994;BME280;66749;47.406;18.822;2023-12-22T01:00:42;98303.41;;;6.44;99.86
76994;BME280;66749;47.406;18.822;2023-12-22T01:01:14;98296.78;;;6.40;99.89
76994;BME280;66749;47.406;18.822;2023-12-22T01:01:46;98293.03;;;6.44;99.99
76994;BME280;66749;47.406;18.822;2023-12-22T01:02:18;98287.13;;;6.42;99.76
76994;BME280;66749;47.406;18.822;2023-12-22T01:02:50;98274.16;;;6.42;99.96
76994;BME280;66749;47.406;18.822;2023-12-22T01:03:22;98258.41;;;6.45;99.47
76994;BME280;66749;47.406;18.822;2023-12-22T01:03:54;98249.56;;;6.48;99.78
76994;BME280;66749;47.406;18.822;2023-12-22T01:04:25;98237.44;;;6.48;99.82
76994;BME280;66749;47.406;18.822;2023-12-22T01:04:57;98231.44;;;6.48;99.63
76994;BME280;66749;47.406;18.822;2023-12-22T01:05:29;98226.13;;;6.49;99.14
76994;BME280;66749;47.406;18.822;2023-12-22T01:06:02;98218.13;;;6.41;99.51
76994;BME280;66749;47.406;18.822;2023-12-22T01:06:37;98221.66;;;6.40;99.64
76994;BME280;66749;47.406;18.822;2023-12-22T01:07:11;98212.84;;;6.43;99.51
76994;BME280;66749;47.406;18.822;2023-12-22T01:07:43;98221.31;;;6.45;99.18
76994;BME280;66749;47.406;18.822;2023-12-22T01:08:15;98211.66;;;6.47;98.60
76994;BME280;66749;47.406;18.822;2023-12-22T01:08:46;98208.00;;;6.49;98.78
76994;BME280;66749;47.406;18.822;2023-12-22T01:09:21;98205.19;;;6.52;98.21
76994;BME280;66749;47.406;18.822;2023-12-22T01:09:53;98202.38;;;6.55;98.51
76994;BME280;66749;47.406;18.822;2023-12-22T01:10:25;98203.19;;;6.56;98.07
76994;BME280;66749;47.406;18.822;2023-12-22T01:10:57;98192.72;;;6.57;98.20
76994;BME280;66749;47.406;18.822;2023-12-22T01:11:29;98187.53;;;6.57;98.21
76994;BME280;66749;47.406;18.822;2023-12-22T01:12:00;98189.19;;;6.58;98.31
76994;BME280;66749;47.406;18.822;2023-12-22T01:12:35;98185.88;;;6.56;98.46
76994;BME280;66749;47.406;18.822;2023-12-22T01:13:07;98183.06;;;6.59;97.96
76994;BME280;66749;47.406;18.822;2023-12-22T01:13:39;98188.38;;;6.58;97.78
76994;BME280;66749;47.406;18.822;2023-12-22T01:14:11;98188.47;;;6.56;98.48
76994;BME280;66749;47.406;18.822;2023-12-22T01:14:44;98200.38;;;6.59;98.14
76994;BME280;66749;47.406;18.822;2023-12-22T01:15:16;98202.88;;;6.60;97.82
76994;BME280;66749;47.406;18.822;2023-12-22T01:15:48;98214.63;;;6.53;98.24
76994;BME280;66749;47.406;18.822;2023-12-22T01:16:20;98220.25;;;6.47;98.59
76994;BME280;66749;47.406;18.822;2023-12-22T01:16:54;98226.13;;;6.49;98.79
76994;BME280;66749;47.406;18.822;2023-12-22T01:17:26;98232.63;;;6.44;98.84
76994;BME280;66749;47.406;18.822;2023-12-22T01:17:58;98221.19;;;6.46;98.86
76994;BME280;66749;47.406;18.822;2023-12-22T01:18:30;98219.19;;;6.50;99.11
76994;BME280;66749;47.406;18.822;2023-12-22T01:19:03;98214.88;;;6.50;98.97
76994;BME280;66749;47.406;18.822;2023-12-22T01:19:35;98215.69;;;6.51;98.58
76994;BME280;66749;47.406;18.822;2023-12-22T01:20:07;98218.28;;;6.51;99.00
76994;BME280;66749;47.406;18.822;2023-12-22T01:20:39;98223.47;;;6.51;98.57
76994;BME280;66749;47.406;18.822;2023-12-22T01:21:11;98213.09;;;6.51;98.51
76994;BME280;66749;47.406;18.822;2023-12-22T01:21:42;98225.94;;;6.52;98.40
76994;BME280;66749;47.406;18.822;2023-12-22T01:22:14;98219.31;;;6.48;98.17
76994;BME280;66749;47.406;18.822;2023-12-22T01:22:46;98225.44;;;6.47;98.59
76994;BME280;66749;47.406;18.822;2023-12-22T01:23:18;98220.25;;;6.47;98.81
76994;BME280;66749;47.406;18.822;2023-12-22T01:23:50;98216.59;;;6.50;98.58
76994;BME280;66749;47.406;18.822;2023-12-22T01:24:23;98212.84;;;6.43;98.85
76994;BME280;66749;47.406;18.822;2023-12-22T01:24:55;98214.94;;;6.49;98.43
76994;BME280;66749;47.406;18.822;2023-12-22T01:25:26;98211.41;;;6.50;98.11
76994;BME280;66749;47.406;18.822;2023-12-22T01:25:58;98207.41;;;6.46;98.79
76994;BME280;66749;47.406;18.822;2023-12-22T01:26:30;98210.13;;;6.44;98.59
76994;BME280;66749;47.406;18.822;2023-12-22T01:27:02;98209.19;;;6.45;98.29
76994;BME280;66749;47.406;18.822;2023-12-22T01:27:34;98203.31;;;6.43;98.33
76994;BME280;66749;47.406;18.822;2023-12-22T01:28:06;98198.94;;;6.44;97.98
76994;BME280;66749;47.406;18.822;2023-12-22T01:28:37;98195.41;;;6.45;98.37
76994;BME280;66749;47.406;18.822;2023-12-22T01:29:09;98190.22;;;6.45;97.97
76994;BME280;66749;47.406;18.822;2023-12-22T01:29:41;98192.59;;;6.48;97.68
76994;BME280;66749;47.406;18.822;2023-12-22T01:30:13;98198.81;;;6.45;97.95
76994;BME280;66749;47.406;18.822;2023-12-22T01:30:45;98196.81;;;6.49;97.67
76994;BME280;66749;47.406;18.822;2023-12-22T01:31:17;98201.63;;;6.42;97.21
76994;BME280;66749;47.406;18.822;2023-12-22T01:31:49;98206.81;;;6.42;97.65
76994;BME280;66749;47.406;18.822;2023-12-22T01:32:21;98207.88;;;6.39;97.99
76994;BME280;66749;47.406;18.822;2023-12-22T01:32:52;98216.34;;;6.42;97.61
76994;BME280;66749;47.406;18.822;2023-12-22T01:33:24;98209.53;;;6.40;98.03
76994;BME280;66749;47.406;18.822;2023-12-22T01:33:56;98215.53;;;6.41;98.04
76994;BME280;66749;47.406;18.822;2023-12-22T01:34:28;98210.34;;;6.41;98.13
76994;BME280;66749;47.406;18.822;2023-12-22T01:35:00;98216.59;;;6.38;98.05
76994;BME280;66749;47.406;18.822;2023-12-22T01:35:40;98217.41;;;6.39;97.95
76994;BME280;66749;47.406;18.822;2023-12-22T01:36:12;98222.34;;;6.42;97.56
76994;BME280;66749;47.406;18.822;2023-12-22T01:36:45;98218.13;;;6.41;97.44
76994;BME280;66749;47.406;18.822;2023-12-22T01:37:16;98220.31;;;6.34;97.63
76994;BME280;66749;47.406;18.822;2023-12-22T01:37:48;98211.84;;;6.32;97.67
76994;BME280;66749;47.406;18.822;2023-12-22T01:38:21;98208.22;;;6.35;97.42
76994;BME280;66749;47.406;18.822;2023-12-22T01:38:53;98208.56;;;6.30;97.83
76994;BME280;66749;47.406;18.822;2023-12-22T01:39:25;98223.28;;;6.30;97.98
76994;BME280;66749;47.406;18.822;2023-12-22T01:39:56;98224.34;;;6.27;97.96
76994;BME280;66749;47.406;18.822;2023-12-22T01:40:28;98226.81;;;6.29;97.57
76994;BME280;66749;47.406;18.822;2023-12-22T01:41:00;98224.09;;;6.30;97.45
76994;BME280;66749;47.406;18.822;2023-12-22T01:41:32;98224.69;;;6.34;97.24
76994;BME280;66749;47.406;18.822;2023-12-22T01:42:04;98218.09;;;6.30;97.08
76994;BME280;66749;47.406;18.822;2023-12-22T01:42:36;98221.50;;;6.30;96.49
76994;BME280;66749;47.406;18.822;2023-12-22T01:43:07;98232.00;;;6.29;96.60
76994;BME280;66749;47.406;18.822;2023-12-22T01:43:39;98232.56;;;6.32;96.97
76994;BME280;66749;47.406;18.822;2023-12-22T01:44:11;98239.03;;;6.27;96.33
76994;BME280;66749;47.406;18.822;2023-12-22T01:44:43;98226.94;;;6.27;95.78
76994;BME280;66749;47.406;18.822;2023-12-22T01:45:15;98230.22;;;6.29;95.67
76994;BME280;66749;47.406;18.822;2023-12-22T01:45:49;98229.28;;;6.30;96.09
76994;BME280;66749;47.406;18.822;2023-12-22T01:46:21;98232.81;;;6.29;95.34
76994;BME280;66749;47.406;18.822;2023-12-22T01:46:53;98232.81;;;6.29;95.77
76994;BME280;66749;47.406;18.822;2023-12-22T01:47:25;98236.94;;;6.32;95.95
76994;BME280;66749;47.406;18.822;2023-12-22T01:47:57;98239.31;;;6.35;95.33
76994;BME280;66749;47.406;18.822;2023-12-22T01:48:30;98239.88;;;6.27;95.09
76994;BME280;66749;47.406;18.822;2023-12-22T01:49:02;98251.06;;;6.28;94.87
76994;BME280;66749;47.406;18.822;2023-12-22T01:49:35;98247.84;;;6.24;95.36
76994;BME280;66749;47.406;18.822;2023-12-22T01:50:07;98252.09;;;6.25;95.40
76994;BME280;66749;47.406;18.822;2023-12-22T01:50:42;98253.41;;;6.31;95.74
76994;BME280;66749;47.406;18.822;2023-12-22T01:51:16;98259.41;;;6.31;94.98
76994;BME280;66749;47.406;18.822;2023-12-22T01:51:48;98253.66;;;6.28;95.42
76994;BME280;66749;47.406;18.822;2023-12-22T01:52:22;98248.22;;;6.31;94.49
76994;BME280;66749;47.406;18.822;2023-12-22T01:52:54;98249.88;;;6.32;94.89
76994;BME280;66749;47.406;18.822;2023-12-22T01:53:27;98239.41;;;6.33;94.92
76994;BME280;66749;47.406;18.822;2023-12-22T01:54:00;98248.00;;;6.34;94.82
76994;BME280;66749;47.406;18.822;2023-12-22T01:54:32;98242.81;;;6.34;94.51
76994;BME280;66749;47.406;18.822;2023-12-22T01:55:05;98230.69;;;6.34;94.50
76994;BME280;66749;47.406;18.822;2023-12-22T01:55:38;98240.03;;;6.37;94.77
76994;BME280;66749;47.406;18.822;2023-12-22T01:56:10;98228.84;;;6.36;94.44
76994;BME280;66749;47.406;18.822;2023-12-22T01:56:42;98231.53;;;6.35;94.54
76994;BME280;66749;47.406;18.822;2023-12-22T01:57:15;98236.72;;;6.35;95.20
76994;BME280;66749;47.406;18.822;2023-12-22T01:57:49;98224.69;;;6.34;95.05
76994;BME280;66749;47.406;18.822;2023-12-22T01:58:24;98234.13;;;6.35;95.29
76994;BME280;66749;47.406;18.822;2023-12-22T01:59:00;98225.41;;;6.36;95.02
76994;BME280;66749;47.406;18.822;2023-12-22T01:59:33;98214.13;;;6.37;94.99
76994;BME280;66749;47.406;18.822;2023-12-22T02:00:07;98209.88;;;6.36;94.46
76994;BME280;66749;47.406;18.822;2023-12-22T02:00:40;98220.00;;;6.39;94.79
76994;BME280;66749;47.406;18.822;2023-12-22T02:01:13;98207.88;;;6.39;94.41
76994;BME280;66749;47.406;18.822;2023-12-22T02:01:45;98211.53;;;6.37;94.29
76994;BME280;66749;47.406;18.822;2023-12-22T02:02:17;98212.47;;;6.36;94.82
76994;BME280;66749;47.406;18.822;2023-12-22T02:02:49;98202.09;;;6.36;94.41
76994;BME280;66749;47.406;18.822;2023-12-22T02:03:22;98194.91;;;6.39;94.81
76994;BME280;66749;47.406;18.822;2023-12-22T02:03:54;98184.81;;;6.36;94.61
76994;BME280;66749;47.406;18.822;2023-12-22T02:04:27;98180.56;;;6.35;95.03
76994;BME280;66749;47.406;18.822;2023-12-22T02:05:01;98173.69;;;6.34;94.88
76994;BME280;66749;47.406;18.822;2023-12-22T02:05:33;98165.59;;;6.39;95.09
76994;BME280;66749;47.406;18.822;2023-12-22T02:06:05;98169.13;;;6.38;94.89
76994;BME280;66749;47.406;18.822;2023-12-22T02:06:37;98172.66;;;6.37;94.88
76994;BME280;66749;47.406;18.822;2023-12-22T02:07:09;98159.84;;;6.35;94.83
76994;BME280;66749;47.406;18.822;2023-12-22T02:07:42;98169.97;;;6.38;94.79
76994;BME280;66749;47.406;18.822;2023-12-22T02:08:17;98169.97;;;6.38;95.15
76994;BME280;66749;47.406;18.822;2023-12-22T02:08:50;98166.53;;;6.38;94.83
76994;BME280;66749;47.406;18.822;2023-12-22T02:09:21;98163.00;;;6.39;94.54
76994;BME280;66749;47.406;18.822;2023-12-22T02:09:53;98158.06;;;6.36;94.34
76994;BME280;66749;47.406;18.822;2023-12-22T02:10:25;98154.66;;;6.35;94.90
76994;BME280;66749;47.406;18.822;2023-12-22T02:10:57;98151.34;;;6.33;94.94
76994;BME280;66749;47.406;18.822;2023-12-22T02:11:29;98156.63;;;6.32;94.97
76994;BME280;66749;47.406;18.822;2023-12-22T02:12:01;98158.28;;;6.33;94.62
76994;BME280;66749;47.406;18.822;2023-12-22T02:12:33;98165.84;;;6.36;94.50
76994;BME280;66749;47.406;18.822;2023-12-22T02:13:05;98177.03;;;6.36;95.10
76994;BME280;66749;47.406;18.822;2023-12-22T02:13:37;98180.56;;;6.35;94.78
76994;BME280;66749;47.406;18.822;2023-12-22T02:14:09;98187.28;;;6.38;94.81
76994;BME280;66749;47.406;18.822;2023-12-22T02:14:41;98188.22;;;6.37;94.39
76994;BME280;66749;47.406;18.822;2023-12-22T02:15:13;98198.56;;;6.37;94.75
76994;BME280;66749;47.406;18.822;2023-12-22T02:15:47;98193.41;;;6.37;94.73
76994;BME280;66749;47.406;18.822;2023-12-22T02:16:35;98183.03;;;6.37;94.99
76994;BME280;66749;47.406;18.822;2023-12-22T02:18:24;98174.56;;;6.35;95.01
76994;BME280;66749;47.406;18.822;2023-12-22T02:18:59;98161.38;;;6.38;94.70
76994;BME280;66749;47.406;18.822;2023-12-22T02:20:11;98132.06;;;6.37;94.89
76994;BME280;66749;47.406;18.822;2023-12-22T02:20:43;98122.50;;;6.38;94.17
76994;BME280;66749;47.406;18.822;2023-12-22T02:21:15;98133.56;;;6.40;93.94
76994;BME280;66749;47.406;18.822;2023-12-22T02:22:04;98147.81;;;6.34;94.43
76994;BME280;66749;47.406;18.822;2023-12-22T02:22:40;98150.50;;;6.33;94.08
76994;BME280;66749;47.406;18.822;2023-12-22T02:23:12;98155.00;;;6.31;94.32
76994;BME280;66749;47.406;18.822;2023-12-22T02:23:44;98162.75;;;6.31;94.19
76994;BME280;66749;47.406;18.822;2023-12-22T02:24:15;98164.66;;;6.29;93.97
76994;BME280;66749;47.406;18.822;2023-12-22T02:24:47;98163.81;;;6.28;93.85
76994;BME280;66749;47.406;18.822;2023-12-22T02:25:19;98155.94;;;6.30;93.97
76994;BME280;66749;47.406;18.822;2023-12-22T02:25:59;98143.69;;;6.32;93.54
76994;BME280;66749;47.406;18.822;2023-12-22T02:26:43;98145.56;;;6.30;93.31
76994;BME280;66749;47.406;18.822;2023-12-22T02:27:38;98132.97;;;6.25;93.27
76994;BME280;66749;47.406;18.822;2023-12-22T02:28:17;98124.16;;;6.28;93.77
76994;BME280;66749;47.406;18.822;2023-12-22T02:28:51;98120.50;;;6.30;93.39
76994;BME280;66749;47.406;18.822;2023-12-22T02:29:25;98115.44;;;6.29;93.23
76994;BME280;66749;47.406;18.822;2023-12-22T02:30:07;98108.38;;;6.31;93.18
76994;BME280;66749;47.406;18.822;2023-12-22T02:31:16;98115.06;;;6.33;93.21
76994;BME280;66749;47.406;18.822;2023-12-22T02:31:42;98117.22;;;6.28;93.01
76994;BME280;66749;47.406;18.822;2023-12-22T02:32:27;98124.25;;;6.26;93.35
76994;BME280;66749;47.406;18.822;2023-12-22T02:33:02;98127.06;;;6.23;93.40
76994;BME280;66749;47.406;18.822;2023-12-22T02:33:36;98138.00;;;6.16;93.96
76994;BME280;66749;47.406;18.822;2023-12-22T02:34:18;98148.94;;;6.19;93.72
76994;BME280;66749;47.406;18.822;2023-12-22T02:34:52;98154.97;;;6.20;93.46
76994;BME280;66749;47.406;18.822;2023-12-22T02:35:28;98147.09;;;6.21;93.75
76994;BME280;66749;47.406;18.822;2023-12-22T02:36:03;98153.22;;;6.20;93.63
76994;BME280;66749;47.406;18.822;2023-12-22T02:36:36;98142.94;;;6.19;93.48
76994;BME280;66749;47.406;18.822;2023-12-22T02:37:10;98144.84;;;6.17;93.39
76994;BME280;66749;47.406;18.822;2023-12-22T02:37:46;98157.06;;;6.15;93.42
76994;BME280;66749;47.406;18.822;2023-12-22T02:38:20;98158.72;;;6.16;93.78
76994;BME280;66749;47.406;18.822;2023-12-22T02:38:54;98157.41;;;6.10;93.58
76994;BME280;66749;47.406;18.822;2023-12-22T02:39:26;98172.00;;;6.11;94.15
76994;BME280;66749;47.406;18.822;2023-12-22T02:39:59;98170.22;;;6.11;93.87
76994;BME280;66749;47.406;18.822;2023-12-22T02:40:33;98173.06;;;6.08;93.59
76994;BME280;66749;47.406;18.822;2023-12-22T02:41:08;98183.41;;;6.08;93.95
76994;BME280;66749;47.406;18.822;2023-12-22T02:41:41;98180.31;;;6.03;93.98
76994;BME280;66749;47.406;18.822;2023-12-22T02:42:13;98192.56;;;6.01;94.22
76994;BME280;66749;47.406;18.822;2023-12-22T02:42:45;98195.84;;;6.03;93.83
76994;BME280;66749;47.406;18.822;2023-12-22T02:43:17;98200.22;;;6.03;93.98
76994;BME280;66749;47.406;18.822;2023-12-22T02:43:49;98203.97;;;5.99;94.26
76994;BME280;66749;47.406;18.822;2023-12-22T02:44:22;98213.38;;;6.00;94.43
76994;BME280;66749;47.406;18.822;2023-12-22T02:44:53;98203.03;;;6.00;94.29
76994;BME280;66749;47.406;18.822;2023-12-22T02:45:25;98208.22;;;6.00;93.88
76994;BME280;66749;47.406;18.822;2023-12-22T02:45:57;98212.69;;;5.98;93.86
76994;BME280;66749;47.406;18.822;2023-12-22T02:46:29;98208.53;;;5.95;94.36
76994;BME280;66749;47.406;18.822;2023-12-22T02:47:01;98209.28;;;5.97;94.20
76994;BME280;66749;47.406;18.822;2023-12-22T02:47:33;98210.91;;;5.98;94.50
76994;BME280;66749;47.406;18.822;2023-12-22T02:48:05;98203.34;;;5.95;94.23
76994;BME280;66749;47.406;18.822;2023-12-22T02:48:37;98208.53;;;5.95;94.28
76994;BME280;66749;47.406;18.822;2023-12-22T02:49:09;98205.00;;;5.96;94.36
76994;BME280;66749;47.406;18.822;2023-12-22T02:49:41;98211.25;;;5.94;94.41
76994;BME280;66749;47.406;18.822;2023-12-22T02:50:15;98210.41;;;5.93;94.74
76994;BME280;66749;47.406;18.822;2023-12-22T02:50:47;98212.47;;;5.88;94.42
76994;BME280;66749;47.406;18.822;2023-12-22T02:51:19;98211.66;;;5.88;94.49
76994;BME280;66749;47.406;18.822;2023-12-22T02:51:51;98218.47;;;5.89;94.65
76994;BME280;66749;47.406;18.822;2023-12-22T02:52:23;98219.53;;;5.86;94.58
76994;BME280;66749;47.406;18.822;2023-12-22T02:52:54;98205.66;;;5.87;94.74
76994;BME280;66749;47.406;18.822;2023-12-22T02:53:27;98205.44;;;5.90;94.14
76994;BME280;66749;47.406;18.822;2023-12-22T02:53:58;98194.19;;;5.91;94.44
76994;BME280;66749;47.406;18.822;2023-12-22T02:54:30;98201.94;;;5.91;94.85
76994;BME280;66749;47.406;18.822;2023-12-22T02:55:05;98187.41;;;5.89;95.04
76994;BME280;66749;47.406;18.822;2023-12-22T02:55:37;98195.09;;;5.90;93.97